Time;durP1;ratioP1;P1;durP2;ratioP2;P2;SDS_P1;SDS_P2;PMS_P1;PMS_P2;Temp;Humidity;BMP_temperature;BMP_pressure;BME280_temperature;BME280_humidity;BME280_pressure;Samples;Min_cycle;Max_cycle;Signal;HPM_P1;HPM_P2
2021/09/13 00:00:21;;;;;;;;;;;21.70;59.90;;;;;;491661;240;981;-68
2021/09/13 00:02:22;;;;;;;;;;;21.80;59.80;;;;;;491617;240;985;-68
2021/09/13 00:04:23;;;;;;;;;;;21.80;59.60;;;;;;491643;240;943;-68
2021/09/13 00:06:25;;;;;;;;;;;21.80;59.60;;;;;;491599;240;1269;-67
2021/09/13 00:08:26;;;;;;;;;;;21.90;59.60;;;;;;491672;240;2125;-68
2021/09/13 00:10:27;;;;;;;;;;;21.90;59.50;;;;;;491660;240;1043;-67
2021/09/13 00:12:29;;;;;;;;;;;22.00;59.40;;;;;;491639;240;1083;-68
2021/09/13 00:14:30;;;;;;;;;;;21.90;59.50;;;;;;491783;240;972;-68
2021/09/13 00:16:31;;;;;;;;;;;21.90;59.60;;;;;;491508;240;1304;-67
2021/09/13 00:18:33;;;;;;;;;;;21.80;59.70;;;;;;491673;240;1062;-68
2021/09/13 00:20:34;;;;;;;;;;;21.90;59.80;;;;;;491619;240;1162;-68
2021/09/13 00:22:35;;;;;;;;;;;21.80;59.70;;;;;;491508;240;1169;-68
2021/09/13 00:24:37;;;;;;;;;;;21.90;59.80;;;;;;491643;240;1118;-68
2021/09/13 00:26:38;;;;;;;;;;;21.80;59.80;;;;;;491569;240;1207;-67
2021/09/13 00:28:39;;;;;;;;;;;21.80;59.80;;;;;;491594;240;2129;-68
2021/09/13 00:30:41;;;;;;;;;;;21.80;59.90;;;;;;491658;240;1331;-67
2021/09/13 00:32:42;;;;;;;;;;;21.80;59.90;;;;;;491583;240;1119;-67
2021/09/13 00:34:43;;;;;;;;;;;21.80;60.00;;;;;;491683;240;1036;-67
2021/09/13 00:36:44;;;;;;;;;;;21.80;59.90;;;;;;491573;240;1291;-68
2021/09/13 00:38:46;;;;;;;;;;;21.80;60.00;;;;;;491709;240;1009;-67
2021/09/13 00:40:47;;;;;;;;;;;21.80;60.00;;;;;;491589;240;1150;-68
2021/09/13 00:42:48;;;;;;;;;;;21.80;60.00;;;;;;491580;240;1111;-68
2021/09/13 00:44:50;;;;;;;;;;;21.80;60.00;;;;;;491661;240;995;-68
2021/09/13 00:46:51;;;;;;;;;;;21.70;60.00;;;;;;491544;240;1196;-67
2021/09/13 00:48:52;;;;;;;;;;;21.80;59.90;;;;;;491724;240;2176;-67
2021/09/13 00:50:54;;;;;;;;;;;21.80;60.00;;;;;;491613;240;1268;-67
2021/09/13 00:52:55;;;;;;;;;;;21.80;60.00;;;;;;491582;240;1243;-68
2021/09/13 00:54:56;;;;;;;;;;;21.80;60.00;;;;;;491672;240;1076;-68
2021/09/13 00:56:58;;;;;;;;;;;21.70;60.00;;;;;;491636;240;1110;-67
2021/09/13 00:58:59;;;;;;;;;;;21.70;60.10;;;;;;491683;240;1044;-67
2021/09/13 01:01:00;;;;;;;;;;;21.70;60.10;;;;;;491577;240;1197;-68
2021/09/13 01:03:02;;;;;;;;;;;21.70;60.20;;;;;;491644;240;1062;-68
2021/09/13 01:05:03;;;;;;;;;;;21.70;60.20;;;;;;491715;240;1070;-68
2021/09/13 01:07:04;;;;;;;;;;;21.70;60.10;;;;;;491590;240;1166;-67
2021/09/13 01:09:06;;;;;;;;;;;21.70;60.20;;;;;;491626;240;2108;-68
2021/09/13 01:11:07;;;;;;;;;;;21.70;60.00;;;;;;491592;240;1182;-67
2021/09/13 01:13:08;;;;;;;;;;;21.70;60.00;;;;;;491564;240;1152;-68
2021/09/13 01:15:10;;;;;;;;;;;21.70;60.00;;;;;;491733;240;1113;-67
2021/09/13 01:17:11;;;;;;;;;;;21.70;60.00;;;;;;491540;240;1155;-68
2021/09/13 01:19:12;;;;;;;;;;;21.70;60.00;;;;;;491653;240;1075;-68
2021/09/13 01:21:14;;;;;;;;;;;22.20;59.00;;;;;;491622;240;1126;-68
2021/09/13 01:23:15;;;;;;;;;;;21.90;59.40;;;;;;491675;240;1182;-68
2021/09/13 01:25:16;;;;;;;;;;;21.80;59.60;;;;;;491611;240;998;-67
2021/09/13 01:27:17;;;;;;;;;;;21.80;59.80;;;;;;491569;240;1221;-68
2021/09/13 01:29:19;;;;;;;;;;;21.80;59.80;;;;;;491659;240;2124;-68
2021/09/13 01:31:20;;;;;;;;;;;21.80;59.80;;;;;;491619;240;1234;-68
2021/09/13 01:33:21;;;;;;;;;;;21.80;59.90;;;;;;491617;240;964;-68
2021/09/13 01:35:23;;;;;;;;;;;21.80;60.00;;;;;;491741;240;948;-68
2021/09/13 01:37:24;;;;;;;;;;;21.80;60.00;;;;;;491566;240;1214;-68
2021/09/13 01:39:25;;;;;;;;;;;21.80;59.90;;;;;;491665;240;937;-68
2021/09/13 01:41:27;;;;;;;;;;;21.80;60.00;;;;;;491614;240;1054;-68
2021/09/13 01:43:28;;;;;;;;;;;21.80;60.00;;;;;;491735;240;1047;-67
2021/09/13 01:45:29;;;;;;;;;;;21.80;60.00;;;;;;491620;240;967;-68
2021/09/13 01:47:31;;;;;;;;;;;21.80;60.00;;;;;;491546;240;1100;-68
2021/09/13 01:49:32;;;;;;;;;;;21.80;60.00;;;;;;491680;240;2285;-68
2021/09/13 01:51:33;;;;;;;;;;;21.80;60.00;;;;;;491717;240;1106;-68
2021/09/13 01:53:35;;;;;;;;;;;21.80;60.00;;;;;;491620;240;1143;-68
2021/09/13 01:55:36;;;;;;;;;;;21.80;60.00;;;;;;491564;240;947;-68
2021/09/13 01:57:37;;;;;;;;;;;21.70;60.00;;;;;;491544;240;1041;-68
2021/09/13 01:59:39;;;;;;;;;;;21.80;60.00;;;;;;491639;240;1055;-67
2021/09/13 02:01:40;;;;;;;;;;;21.70;60.00;;;;;;491699;240;1140;-68
2021/09/13 02:03:41;;;;;;;;;;;21.80;60.00;;;;;;491701;240;1112;-68
2021/09/13 02:05:43;;;;;;;;;;;21.70;60.00;;;;;;491634;240;951;-67
2021/09/13 02:07:44;;;;;;;;;;;21.70;60.10;;;;;;491629;240;1176;-67
2021/09/13 02:09:47;;;;;;;;;;;21.70;60.10;;;;;;491696;240;2157;-68
2021/09/13 02:11:46;;;;;;;;;;;21.70;60.00;;;;;;491567;240;1834;-68
2021/09/13 02:13:48;;;;;;;;;;;21.80;60.00;;;;;;491596;240;1002;-67
2021/09/13 02:15:49;;;;;;;;;;;21.70;60.00;;;;;;491571;240;947;-68
2021/09/13 02:17:51;;;;;;;;;;;21.70;60.00;;;;;;491609;240;1119;-68
2021/09/13 02:19:52;;;;;;;;;;;21.70;60.00;;;;;;491640;240;1088;-68
2021/09/13 02:21:53;;;;;;;;;;;21.70;59.90;;;;;;491592;240;1149;-67
2021/09/13 02:23:55;;;;;;;;;;;21.70;60.00;;;;;;491657;240;1177;-68
2021/09/13 02:25:56;;;;;;;;;;;21.70;60.00;;;;;;491547;240;1116;-67
2021/09/13 02:27:57;;;;;;;;;;;21.70;60.00;;;;;;491600;240;2183;-68
2021/09/13 02:29:58;;;;;;;;;;;21.80;60.00;;;;;;491634;240;1085;-68
2021/09/13 02:32:00;;;;;;;;;;;21.70;59.90;;;;;;491545;240;1140;-68
2021/09/13 02:34:01;;;;;;;;;;;21.80;60.00;;;;;;491586;240;1063;-68
2021/09/13 02:36:02;;;;;;;;;;;21.70;60.00;;;;;;491564;240;1123;-67
2021/09/13 02:38:04;;;;;;;;;;;21.70;60.00;;;;;;491563;240;1089;-68
2021/09/13 02:40:05;;;;;;;;;;;21.80;60.00;;;;;;491693;240;1007;-68
2021/09/13 02:42:06;;;;;;;;;;;21.70;60.00;;;;;;491494;240;1211;-68
2021/09/13 02:44:08;;;;;;;;;;;21.70;60.00;;;;;;491605;240;1138;-68
2021/09/13 02:46:09;;;;;;;;;;;21.70;60.00;;;;;;491528;240;1194;-67
2021/09/13 02:48:10;;;;;;;;;;;21.70;60.00;;;;;;491515;240;2195;-67
2021/09/13 02:50:12;;;;;;;;;;;21.70;59.90;;;;;;491710;240;1061;-68
2021/09/13 02:52:13;;;;;;;;;;;21.70;60.00;;;;;;491447;240;1277;-67
2021/09/13 02:54:14;;;;;;;;;;;21.70;60.00;;;;;;491568;240;1169;-67
2021/09/13 02:56:16;;;;;;;;;;;21.80;59.90;;;;;;491458;240;1300;-67
2021/09/13 02:58:17;;;;;;;;;;;21.70;59.90;;;;;;491543;240;1134;-67
2021/09/13 03:00:19;;;;;;;;;;;21.70;59.90;;;;;;491612;240;1100;-67
2021/09/13 03:02:20;;;;;;;;;;;21.70;59.90;;;;;;491524;240;1323;-68
2021/09/13 03:04:21;;;;;;;;;;;21.70;59.80;;;;;;491628;240;1029;-68
2021/09/13 03:06:22;;;;;;;;;;;21.80;59.80;;;;;;491571;240;1117;-68
2021/09/13 03:08:24;;;;;;;;;;;21.80;59.80;;;;;;491648;240;2164;-67
2021/09/13 03:10:25;;;;;;;;;;;21.80;59.70;;;;;;491705;240;1095;-67
2021/09/13 03:12:27;;;;;;;;;;;21.80;59.70;;;;;;491678;240;1086;-68
2021/09/13 03:14:27;;;;;;;;;;;21.80;59.60;;;;;;491620;240;1388;-68
2021/09/13 03:16:29;;;;;;;;;;;21.80;59.70;;;;;;491623;240;1210;-68
2021/09/13 03:18:30;;;;;;;;;;;21.80;59.60;;;;;;491555;240;964;-68
2021/09/13 03:20:31;;;;;;;;;;;21.80;59.50;;;;;;491598;240;952;-67
2021/09/13 03:22:33;;;;;;;;;;;22.20;58.60;;;;;;491596;240;1140;-68
2021/09/13 03:24:34;;;;;;;;;;;21.80;59.30;;;;;;491633;240;1135;-67
2021/09/13 03:26:35;;;;;;;;;;;21.80;59.50;;;;;;491626;240;1196;-68
2021/09/13 03:28:37;;;;;;;;;;;21.70;59.70;;;;;;491630;240;2193;-68
2021/09/13 03:30:38;;;;;;;;;;;21.70;59.70;;;;;;491560;240;1218;-68
2021/09/13 03:32:39;;;;;;;;;;;21.70;59.70;;;;;;491489;240;1119;-67
2021/09/13 03:34:41;;;;;;;;;;;21.70;59.70;;;;;;491640;240;966;-68
2021/09/13 03:36:42;;;;;;;;;;;21.60;59.70;;;;;;491587;240;1159;-68
2021/09/13 03:38:43;;;;;;;;;;;21.60;59.70;;;;;;491664;240;1155;-68
2021/09/13 03:40:45;;;;;;;;;;;21.70;59.80;;;;;;491569;240;1216;-68
2021/09/13 03:42:46;;;;;;;;;;;21.70;59.70;;;;;;491615;240;1150;-67
2021/09/13 03:44:47;;;;;;;;;;;21.70;59.60;;;;;;491615;240;952;-67
2021/09/13 03:46:49;;;;;;;;;;;21.70;59.70;;;;;;491640;240;1214;-68
2021/09/13 03:48:50;;;;;;;;;;;21.70;59.60;;;;;;491528;240;2116;-68
2021/09/13 03:50:51;;;;;;;;;;;21.70;59.60;;;;;;491687;240;1047;-67
2021/09/13 03:52:53;;;;;;;;;;;21.60;59.60;;;;;;491528;242;1221;-68
2021/09/13 03:54:54;;;;;;;;;;;21.70;59.70;;;;;;491631;240;1169;-68
2021/09/13 03:56:55;;;;;;;;;;;21.70;59.60;;;;;;491547;240;1234;-67
2021/09/13 03:58:56;;;;;;;;;;;21.70;59.60;;;;;;491642;240;1113;-68
2021/09/13 04:00:58;;;;;;;;;;;21.70;59.50;;;;;;491544;240;1110;-68
2021/09/13 04:03:00;;;;;;;;;;;21.70;59.60;;;;;;491620;240;1113;-68
2021/09/13 04:05:00;;;;;;;;;;;21.70;59.50;;;;;;491615;240;1268;-68
2021/09/13 04:07:04;;;;;;;;;;;21.70;59.50;;;;;;491547;240;1160;-67
2021/09/13 04:11:38;;;;;;;;;;;21.70;59.40;;;;;;488794;241;1310;-67
2021/09/13 04:13:37;;;;;;;;;;;21.70;59.40;;;;;;491670;240;1426;-67
2021/09/13 04:15:38;;;;;;;;;;;21.60;59.50;;;;;;491003;240;1261;-67
2021/09/13 04:17:39;;;;;;;;;;;21.70;59.60;;;;;;491404;240;1195;-67
2021/09/13 04:19:42;;;;;;;;;;;21.60;59.50;;;;;;491527;240;952;-67
2021/09/13 04:21:42;;;;;;;;;;;21.60;59.70;;;;;;491383;240;1400;-67
2021/09/13 04:23:43;;;;;;;;;;;21.60;59.60;;;;;;491548;240;1224;-67
2021/09/13 04:25:45;;;;;;;;;;;21.60;59.60;;;;;;491462;240;1227;-67
2021/09/13 04:27:46;;;;;;;;;;;21.60;59.50;;;;;;491445;240;1087;-67
2021/09/13 04:29:48;;;;;;;;;;;21.70;59.40;;;;;;491429;240;2113;-67
2021/09/13 04:31:49;;;;;;;;;;;21.60;59.30;;;;;;491436;240;1290;-67
2021/09/13 04:33:51;;;;;;;;;;;21.60;59.50;;;;;;491509;240;960;-67
2021/09/13 04:35:52;;;;;;;;;;;21.60;59.50;;;;;;491456;240;1397;-67
2021/09/13 04:37:53;;;;;;;;;;;21.60;59.40;;;;;;491469;240;1030;-67
2021/09/13 04:39:55;;;;;;;;;;;21.60;59.30;;;;;;491518;240;1186;-67
2021/09/13 04:41:56;;;;;;;;;;;21.60;59.20;;;;;;491405;240;1086;-67
2021/09/13 04:43:57;;;;;;;;;;;21.70;59.30;;;;;;491454;240;1019;-67
2021/09/13 04:45:59;;;;;;;;;;;21.60;59.40;;;;;;491379;240;1219;-67
2021/09/13 04:48:00;;;;;;;;;;;21.60;59.30;;;;;;491390;240;1125;-67
2021/09/13 04:50:01;;;;;;;;;;;21.60;59.30;;;;;;491446;240;2136;-67
2021/09/13 04:52:03;;;;;;;;;;;21.60;59.30;;;;;;491270;240;1170;-67
2021/09/13 04:54:04;;;;;;;;;;;21.60;59.50;;;;;;491330;240;1142;-67
2021/09/13 04:56:05;;;;;;;;;;;21.60;59.40;;;;;;491321;240;1392;-67
2021/09/13 04:58:07;;;;;;;;;;;21.60;59.40;;;;;;491313;240;1124;-67
2021/09/13 05:00:08;;;;;;;;;;;21.60;59.30;;;;;;491322;240;963;-67
2021/09/13 05:02:09;;;;;;;;;;;21.60;59.30;;;;;;491220;240;1365;-67
2021/09/13 05:04:11;;;;;;;;;;;21.60;59.30;;;;;;491249;240;1088;-67
2021/09/13 05:06:12;;;;;;;;;;;21.60;59.30;;;;;;491331;240;1208;-67
2021/09/13 05:08:13;;;;;;;;;;;21.60;59.20;;;;;;491307;240;988;-67
2021/09/13 05:10:15;;;;;;;;;;;21.60;59.20;;;;;;491194;240;2137;-67
2021/09/13 05:12:16;;;;;;;;;;;21.60;59.20;;;;;;491158;240;1210;-67
2021/09/13 05:14:17;;;;;;;;;;;21.60;59.20;;;;;;491159;240;982;-67
2021/09/13 05:16:18;;;;;;;;;;;21.60;59.20;;;;;;491128;240;1067;-67
2021/09/13 05:18:20;;;;;;;;;;;21.60;59.20;;;;;;491131;240;1174;-67
2021/09/13 05:20:21;;;;;;;;;;;21.70;59.10;;;;;;491336;240;1117;-67
2021/09/13 05:22:22;;;;;;;;;;;22.50;57.30;;;;;;491283;240;1222;-67
2021/09/13 05:24:24;;;;;;;;;;;21.90;58.10;;;;;;491327;240;1234;-67
2021/09/13 05:26:25;;;;;;;;;;;21.70;58.70;;;;;;491263;240;1125;-67
2021/09/13 05:28:26;;;;;;;;;;;21.70;58.80;;;;;;491313;240;1118;-67
2021/09/13 05:30:28;;;;;;;;;;;21.70;58.90;;;;;;491194;240;2183;-67
2021/09/13 05:32:29;;;;;;;;;;;21.60;59.00;;;;;;491238;240;1161;-67
2021/09/13 05:34:30;;;;;;;;;;;21.60;59.00;;;;;;491319;240;1044;-67
2021/09/13 05:36:32;;;;;;;;;;;21.60;59.00;;;;;;491219;240;1096;-67
2021/09/13 05:38:35;;;;;;;;;;;21.70;58.90;;;;;;491276;240;1070;-67
2021/09/13 05:40:35;;;;;;;;;;;21.60;59.00;;;;;;490784;240;1201;-68
2021/09/13 05:42:36;;;;;;;;;;;21.70;59.00;;;;;;491198;240;1217;-68
2021/09/13 05:44:39;;;;;;;;;;;21.60;59.00;;;;;;491255;240;946;-67
2021/09/13 05:46:39;;;;;;;;;;;21.60;59.00;;;;;;491159;240;1415;-67
2021/09/13 05:48:40;;;;;;;;;;;21.60;59.00;;;;;;491191;240;1095;-67
2021/09/13 05:50:42;;;;;;;;;;;21.70;59.10;;;;;;491228;240;2117;-67
2021/09/13 05:52:43;;;;;;;;;;;21.60;59.00;;;;;;491185;240;1093;-67
2021/09/13 05:54:45;;;;;;;;;;;21.60;59.10;;;;;;491191;240;1126;-67
2021/09/13 05:56:49;;;;;;;;;;;21.60;59.10;;;;;;491114;240;1095;-67
2021/09/13 05:58:47;;;;;;;;;;;21.60;59.10;;;;;;491158;240;1423;-67
2021/09/13 06:00:49;;;;;;;;;;;21.60;59.10;;;;;;491198;240;1134;-67
2021/09/13 06:02:50;;;;;;;;;;;21.60;59.20;;;;;;491106;240;1197;-67
2021/09/13 06:04:53;;;;;;;;;;;21.70;59.10;;;;;;491047;240;1016;-67
2021/09/13 06:06:52;;;;;;;;;;;21.60;58.90;;;;;;490986;240;1351;-67
2021/09/13 06:08:54;;;;;;;;;;;21.70;59.00;;;;;;491045;240;1078;-67
2021/09/13 06:10:55;;;;;;;;;;;21.70;59.00;;;;;;491085;240;2200;-69
2021/09/13 06:12:56;;;;;;;;;;;21.70;58.90;;;;;;491019;240;1149;-67
2021/09/13 06:14:58;;;;;;;;;;;21.70;58.80;;;;;;491122;240;1055;-67
2021/09/13 06:16:59;;;;;;;;;;;21.60;58.90;;;;;;491001;240;1089;-67
2021/09/13 06:19:00;;;;;;;;;;;21.60;59.20;;;;;;491083;240;1263;-67
2021/09/13 06:21:02;;;;;;;;;;;21.70;59.10;;;;;;491009;240;1172;-67
2021/09/13 06:23:03;;;;;;;;;;;21.60;59.10;;;;;;491153;240;1293;-67
2021/09/13 06:25:04;;;;;;;;;;;21.70;59.10;;;;;;491016;240;1268;-67
2021/09/13 06:27:06;;;;;;;;;;;21.60;59.20;;;;;;491016;240;1097;-67
2021/09/13 06:29:08;;;;;;;;;;;21.70;59.20;;;;;;490878;240;1033;-67
2021/09/13 06:31:09;;;;;;;;;;;21.60;59.10;;;;;;490863;240;2124;-67
2021/09/13 06:33:10;;;;;;;;;;;21.70;59.20;;;;;;490920;240;1094;-67
2021/09/13 06:35:12;;;;;;;;;;;21.70;59.20;;;;;;490955;240;1043;-67
2021/09/13 06:37:13;;;;;;;;;;;21.70;59.10;;;;;;490844;240;1238;-67
2021/09/13 06:39:14;;;;;;;;;;;21.70;59.20;;;;;;490875;240;1071;-68
2021/09/13 06:41:15;;;;;;;;;;;21.70;59.20;;;;;;490845;240;1283;-67
2021/09/13 06:43:18;;;;;;;;;;;21.70;59.20;;;;;;490920;240;1068;-67
2021/09/13 06:45:21;;;;;;;;;;;21.70;59.20;;;;;;490922;240;1312;-68
2021/09/13 06:47:34;;;;;;;;;;;21.70;59.30;;;;;;490985;240;1218;-68
2021/09/13 06:49:25;;;;;;;;;;;21.80;59.30;;;;;;490975;240;1431;-67
2021/09/13 06:51:26;;;;;;;;;;;21.70;59.30;;;;;;490662;240;1189;-67
2021/09/13 06:53:28;;;;;;;;;;;21.70;59.30;;;;;;490585;240;1174;-67
2021/09/13 06:55:29;;;;;;;;;;;21.70;59.30;;;;;;490895;240;1245;-67
2021/09/13 06:57:30;;;;;;;;;;;21.70;59.40;;;;;;491006;240;1177;-67
2021/09/13 06:59:32;;;;;;;;;;;21.80;59.30;;;;;;490738;240;1014;-67
2021/09/13 07:01:33;;;;;;;;;;;21.80;59.30;;;;;;490754;240;1557;-67
2021/09/13 07:03:34;;;;;;;;;;;21.70;59.40;;;;;;490761;240;1180;-67
2021/09/13 07:05:36;;;;;;;;;;;21.80;59.40;;;;;;490736;240;1035;-67
2021/09/13 07:07:37;;;;;;;;;;;21.80;59.30;;;;;;490651;240;1644;-67
2021/09/13 07:09:38;;;;;;;;;;;21.80;59.30;;;;;;490590;240;2208;-67
2021/09/13 07:11:40;;;;;;;;;;;21.80;59.60;;;;;;490618;240;1277;-68
2021/09/13 07:13:41;;;;;;;;;;;21.80;59.60;;;;;;490808;240;1091;-67
2021/09/13 07:15:42;;;;;;;;;;;21.80;59.60;;;;;;490396;240;1070;-67
2021/09/13 07:17:44;;;;;;;;;;;21.80;59.50;;;;;;490290;240;1138;-68
2021/09/13 07:19:45;;;;;;;;;;;21.80;59.40;;;;;;490420;240;1229;-67
2021/09/13 07:21:47;;;;;;;;;;;22.10;59.20;;;;;;490471;240;1142;-67
2021/09/13 07:23:48;;;;;;;;;;;22.00;58.90;;;;;;490463;240;1345;-67
2021/09/13 07:25:49;;;;;;;;;;;21.90;59.20;;;;;;490356;240;1253;-67
2021/09/13 07:27:51;;;;;;;;;;;21.90;59.40;;;;;;490355;240;1099;-67
2021/09/13 07:29:53;;;;;;;;;;;21.80;59.40;;;;;;490387;240;2136;-67
2021/09/13 07:31:53;;;;;;;;;;;21.80;59.50;;;;;;490603;240;1813;-67
2021/09/13 07:33:54;;;;;;;;;;;21.90;59.50;;;;;;490575;240;1242;-67
2021/09/13 07:35:56;;;;;;;;;;;21.90;59.40;;;;;;490184;240;1429;-67
2021/09/13 07:37:57;;;;;;;;;;;21.90;59.40;;;;;;490310;240;1097;-67
2021/09/13 07:39:59;;;;;;;;;;;21.90;59.50;;;;;;490336;240;1099;-68
2021/09/13 07:42:00;;;;;;;;;;;21.80;59.50;;;;;;490333;240;1293;-68
2021/09/13 07:44:01;;;;;;;;;;;21.80;59.50;;;;;;490321;240;1121;-67
2021/09/13 07:46:03;;;;;;;;;;;21.80;59.50;;;;;;490367;240;1190;-68
2021/09/13 07:48:04;;;;;;;;;;;21.80;59.60;;;;;;491389;240;1024;-67
2021/09/13 07:50:05;;;;;;;;;;;21.80;59.60;;;;;;491235;240;2184;-67
2021/09/13 07:52:07;;;;;;;;;;;21.80;59.60;;;;;;490772;240;1700;-67
2021/09/13 07:54:10;;;;;;;;;;;21.80;59.60;;;;;;490704;240;997;-67
2021/09/13 07:56:09;;;;;;;;;;;21.80;59.60;;;;;;490447;240;1408;-67
2021/09/13 07:58:11;;;;;;;;;;;21.80;59.70;;;;;;490829;240;1042;-67
2021/09/13 08:00:13;;;;;;;;;;;21.80;59.70;;;;;;489962;240;1065;-67
2021/09/13 08:02:13;;;;;;;;;;;21.80;59.70;;;;;;490107;240;2168;-67
2021/09/13 08:04:15;;;;;;;;;;;21.80;59.60;;;;;;490874;240;1279;-67
2021/09/13 08:06:16;;;;;;;;;;;21.80;59.70;;;;;;490638;240;1287;-67
2021/09/13 08:08:17;;;;;;;;;;;21.90;59.60;;;;;;490626;240;1233;-67
2021/09/13 08:10:19;;;;;;;;;;;21.80;59.50;;;;;;490373;240;2179;-67
2021/09/13 08:12:20;;;;;;;;;;;21.80;59.60;;;;;;490673;240;1350;-67
2021/09/13 08:14:21;;;;;;;;;;;21.90;59.50;;;;;;490711;240;1076;-67
2021/09/13 08:16:23;;;;;;;;;;;21.80;59.60;;;;;;490156;240;1436;-67
2021/09/13 08:18:25;;;;;;;;;;;21.80;59.60;;;;;;490305;240;1106;-67
2021/09/13 08:20:27;;;;;;;;;;;21.80;59.70;;;;;;490442;240;1101;-67
2021/09/13 08:22:28;;;;;;;;;;;21.80;59.70;;;;;;490735;241;1051;-68
2021/09/13 08:24:29;;;;;;;;;;;21.80;59.70;;;;;;490528;240;1070;-67
2021/09/13 08:26:30;;;;;;;;;;;21.80;59.70;;;;;;490347;240;1302;-67
2021/09/13 08:28:32;;;;;;;;;;;21.80;59.80;;;;;;490452;240;1118;-68
2021/09/13 08:30:33;;;;;;;;;;;21.80;59.80;;;;;;490409;240;2169;-67
2021/09/13 08:32:34;;;;;;;;;;;21.70;59.90;;;;;;490541;240;1267;-67
2021/09/13 08:34:37;;;;;;;;;;;21.80;59.90;;;;;;490507;240;1083;-68
2021/09/13 08:36:37;;;;;;;;;;;21.90;59.70;;;;;;490652;240;1160;-68
2021/09/13 08:38:39;;;;;;;;;;;21.90;59.70;;;;;;491488;240;1023;-67
2021/09/13 08:40:40;;;;;;;;;;;21.80;59.70;;;;;;490853;240;1032;-68
2021/09/13 08:42:41;;;;;;;;;;;21.90;59.70;;;;;;489663;240;1258;-68
2021/09/13 08:44:46;;;;;;;;;;;21.90;59.50;;;;;;490305;240;1097;-67
2021/09/13 08:46:48;;;;;;;;;;;21.80;59.70;;;;;;490516;240;1448;-68
2021/09/13 08:48:50;;;;;;;;;;;21.90;59.70;;;;;;491474;240;1276;-68
2021/09/13 08:51:18;;;;;;;;;;;21.80;59.80;;;;;;490280;240;2176;-68
2021/09/13 08:53:21;;;;;;;;;;;21.80;59.80;;;;;;490297;240;1317;-67
2021/09/13 08:55:21;;;;;;;;;;;21.90;59.70;;;;;;490443;240;1476;-67
2021/09/13 08:57:22;;;;;;;;;;;21.90;59.80;;;;;;490928;240;2395;-67
2021/09/13 08:59:24;;;;;;;;;;;21.90;59.70;;;;;;490781;240;1184;-67
2021/09/13 09:01:25;;;;;;;;;;;22.00;59.60;;;;;;490258;240;1465;-67
2021/09/13 09:03:26;;;;;;;;;;;21.90;59.50;;;;;;490391;240;1176;-67
2021/09/13 09:05:27;;;;;;;;;;;22.00;59.40;;;;;;490316;240;1078;-67
2021/09/13 09:07:29;;;;;;;;;;;22.00;59.40;;;;;;490244;240;1082;-67
2021/09/13 09:09:30;;;;;;;;;;;22.00;59.50;;;;;;490366;240;1346;-68
2021/09/13 09:11:32;;;;;;;;;;;21.90;59.50;;;;;;490358;240;2183;-67
2021/09/13 09:13:33;;;;;;;;;;;21.90;59.70;;;;;;490499;240;1225;-67
2021/09/13 09:15:34;;;;;;;;;;;21.90;59.70;;;;;;490524;240;1080;-67
2021/09/13 09:17:36;;;;;;;;;;;21.80;59.80;;;;;;490624;240;1311;-68
2021/09/13 09:19:37;;;;;;;;;;;21.80;59.90;;;;;;490494;240;1000;-68
2021/09/13 09:21:39;;;;;;;;;;;21.90;59.90;;;;;;490436;240;1333;-67
2021/09/13 09:23:39;;;;;;;;;;;21.90;59.50;;;;;;490566;240;1323;-67
2021/09/13 09:25:41;;;;;;;;;;;21.90;59.80;;;;;;490537;240;1376;-68
2021/09/13 09:27:42;;;;;;;;;;;21.80;60.00;;;;;;490900;240;1240;-68
2021/09/13 09:29:43;;;;;;;;;;;21.80;59.90;;;;;;490640;240;1041;-68
2021/09/13 09:31:45;;;;;;;;;;;21.80;60.00;;;;;;490653;240;2212;-68
2021/09/13 09:33:47;;;;;;;;;;;21.80;59.90;;;;;;490727;240;1099;-68
2021/09/13 09:35:48;;;;;;;;;;;21.80;59.90;;;;;;490190;240;1377;-67
2021/09/13 09:37:49;;;;;;;;;;;21.90;59.90;;;;;;490791;240;1163;-67
2021/09/13 09:39:53;;;;;;;;;;;21.90;59.90;;;;;;490783;240;1060;-67
2021/09/13 09:41:53;;;;;;;;;;;21.80;60.00;;;;;;490694;240;1608;-67
2021/09/13 09:43:54;;;;;;;;;;;21.80;60.00;;;;;;490578;240;1330;-67
2021/09/13 09:45:54;;;;;;;;;;;21.80;59.90;;;;;;490356;240;1489;-67
2021/09/13 09:47:55;;;;;;;;;;;21.80;60.00;;;;;;491286;240;1311;-67
2021/09/13 09:49:57;;;;;;;;;;;21.80;60.00;;;;;;491264;240;1023;-67
2021/09/13 09:51:58;;;;;;;;;;;21.90;59.90;;;;;;490701;240;2207;-68
2021/09/13 09:53:59;;;;;;;;;;;21.80;59.90;;;;;;491145;240;753;-67
2021/09/13 09:56:01;;;;;;;;;;;21.80;59.90;;;;;;491009;240;1505;-68
2021/09/13 09:58:02;;;;;;;;;;;21.80;60.00;;;;;;490469;240;1171;-68
2021/09/13 10:00:03;;;;;;;;;;;21.80;60.00;;;;;;490430;240;1124;-68
2021/09/13 10:02:05;;;;;;;;;;;21.80;59.90;;;;;;490140;240;1443;-68
2021/09/13 10:04:06;;;;;;;;;;;21.80;59.90;;;;;;490313;240;1102;-67
2021/09/13 10:06:07;;;;;;;;;;;21.90;59.80;;;;;;490432;240;1423;-67
2021/09/13 10:08:09;;;;;;;;;;;21.80;60.00;;;;;;490516;240;1261;-68
2021/09/13 10:10:10;;;;;;;;;;;21.80;60.00;;;;;;490513;240;1170;-67
2021/09/13 10:12:11;;;;;;;;;;;21.80;60.10;;;;;;490523;240;2187;-67
2021/09/13 10:14:12;;;;;;;;;;;21.80;60.00;;;;;;490432;240;1149;-68
2021/09/13 10:16:14;;;;;;;;;;;21.80;60.00;;;;;;490483;240;1247;-68
2021/09/13 10:18:15;;;;;;;;;;;22.10;59.20;;;;;;490539;240;1223;-68
2021/09/13 10:20:17;;;;;;;;;;;21.60;60.30;;;;;;490420;240;1044;-67
2021/09/13 10:22:18;;;;;;;;;;;21.50;61.00;;;;;;490545;240;1374;-68
2021/09/13 10:24:19;;;;;;;;;;;21.40;61.30;;;;;;490778;240;1074;-67
2021/09/13 10:26:20;;;;;;;;;;;21.30;61.80;;;;;;490100;240;1501;-67
2021/09/13 10:28:22;;;;;;;;;;;21.30;61.90;;;;;;490181;240;1262;-68
2021/09/13 10:30:23;;;;;;;;;;;21.20;62.10;;;;;;490380;240;1202;-68
2021/09/13 10:32:25;;;;;;;;;;;21.20;62.20;;;;;;490447;240;2176;-67
2021/09/13 10:34:27;;;;;;;;;;;21.20;62.40;;;;;;490483;240;980;-67
2021/09/13 10:36:27;;;;;;;;;;;21.20;62.40;;;;;;490415;240;1297;-68
2021/09/13 10:38:29;;;;;;;;;;;21.20;62.50;;;;;;490487;240;1144;-67
2021/09/13 10:40:32;;;;;;;;;;;21.20;62.70;;;;;;490483;240;1207;-67
2021/09/13 10:42:31;;;;;;;;;;;21.10;62.70;;;;;;490224;240;1282;-67
2021/09/13 10:44:35;;;;;;;;;;;21.10;62.80;;;;;;490246;240;1247;-67
2021/09/13 10:46:34;;;;;;;;;;;21.10;62.90;;;;;;490312;240;1250;-67
2021/09/13 10:48:36;;;;;;;;;;;21.10;62.90;;;;;;490318;240;1112;-67
2021/09/13 10:50:37;;;;;;;;;;;21.10;62.90;;;;;;490463;240;1097;-67
2021/09/13 10:52:38;;;;;;;;;;;21.10;62.90;;;;;;490484;240;2132;-67
2021/09/13 10:54:40;;;;;;;;;;;21.10;63.00;;;;;;490534;240;1064;-68
2021/09/13 10:56:41;;;;;;;;;;;21.10;63.00;;;;;;490506;240;1924;-68
2021/09/13 10:58:43;;;;;;;;;;;21.10;63.00;;;;;;490522;240;1141;-68
2021/09/13 11:00:44;;;;;;;;;;;21.10;63.10;;;;;;490333;240;1085;-68
2021/09/13 11:02:45;;;;;;;;;;;21.10;63.10;;;;;;490190;240;1108;-68
2021/09/13 11:04:47;;;;;;;;;;;21.10;63.10;;;;;;490639;240;1047;-68
2021/09/13 11:06:48;;;;;;;;;;;21.10;63.20;;;;;;490384;240;1098;-68
2021/09/13 11:08:50;;;;;;;;;;;21.10;63.30;;;;;;490513;240;1202;-67
2021/09/13 11:10:51;;;;;;;;;;;21.10;63.20;;;;;;490437;240;1359;-67
2021/09/13 11:12:52;;;;;;;;;;;21.10;63.30;;;;;;490460;240;2184;-67
2021/09/13 11:14:54;;;;;;;;;;;21.10;63.20;;;;;;490169;240;1207;-67
2021/09/13 11:16:55;;;;;;;;;;;21.10;63.30;;;;;;490185;240;1042;-67
2021/09/13 11:18:56;;;;;;;;;;;21.10;63.30;;;;;;490341;240;1101;-67
2021/09/13 11:20:58;;;;;;;;;;;21.00;63.30;;;;;;490289;240;1130;-67
2021/09/13 11:22:59;;;;;;;;;;;21.00;63.40;;;;;;490343;240;1239;-67
2021/09/13 11:25:00;;;;;;;;;;;21.10;63.30;;;;;;490384;240;1094;-67
2021/09/13 11:27:02;;;;;;;;;;;21.10;63.10;;;;;;490382;240;1083;-68
2021/09/13 11:29:03;;;;;;;;;;;21.40;62.50;;;;;;490430;240;1161;-68
2021/09/13 11:31:04;;;;;;;;;;;21.50;61.80;;;;;;490394;240;2183;-68
2021/09/13 11:33:06;;;;;;;;;;;21.60;61.40;;;;;;490939;240;1201;-68
2021/09/13 11:35:07;;;;;;;;;;;21.80;61.00;;;;;;490906;240;1019;-68
2021/09/13 11:37:09;;;;;;;;;;;21.80;60.70;;;;;;490918;240;1089;-68
2021/09/13 11:39:10;;;;;;;;;;;21.90;60.50;;;;;;490466;240;1134;-68
2021/09/13 11:41:11;;;;;;;;;;;21.90;60.40;;;;;;490831;240;900;-68
2021/09/13 11:43:12;;;;;;;;;;;21.90;60.20;;;;;;490893;240;1094;-68
2021/09/13 11:45:15;;;;;;;;;;;22.00;60.30;;;;;;490330;240;1106;-68
2021/09/13 11:47:15;;;;;;;;;;;22.00;60.10;;;;;;490128;240;1181;-67
2021/09/13 11:49:16;;;;;;;;;;;22.10;59.90;;;;;;490554;240;810;-67
2021/09/13 11:51:17;;;;;;;;;;;22.10;59.80;;;;;;490387;240;2164;-67
2021/09/13 11:53:19;;;;;;;;;;;22.10;59.80;;;;;;490538;240;988;-67
2021/09/13 11:55:21;;;;;;;;;;;22.10;59.80;;;;;;491064;240;660;-67
2021/09/13 11:57:21;;;;;;;;;;;22.10;59.60;;;;;;490578;240;1321;-67
2021/09/13 11:59:23;;;;;;;;;;;22.10;59.50;;;;;;490790;240;1082;-67